aviador You're here:

KFAF Decoded Metar

FORT EUSTIS in VA, USA
Report Time2017-10-20 15:58:00
UTC Time2017-10-20 16:10:43
Flight Rules vfr VFR
Wind350° at 06 kt
W.Decomp.*RWY 32: 4.5 kt HW 3.9 kt RCW
W.Rank350° ranks 25
Current wind is below 350° avg. (6.3)
Visibility9999 m
Phenomena:N/A
Clouds:N/A
Expected CloudBase > 4,800 ft AGL from Temp-Dew spread
CeilingNone
Temp24°C (ISA +9)
Dew Point12°C (47% RH)
AAT22.5°C
QNH1023 hPa
Density Alt915 ft
Elevation13 ft
Report Wrong Elevation
Raw Report
KFAF 201558Z AUTO 35006KT 10SM CLR 24/12 A3022 RMK AO2 SLP237
T02410124 $=

Extra information for KFAF:More info

Metar Taf Metar & Taf Last 4 Metars F.Rules Stats Wind Profile Meteogram Temp Stats Airport Information Weather charts Add Link Nearby VenuesMetar ALERT Operation Metar Decoded Social comments

AIRNAV info for KFAF